Welkom op Weerpagina Nieuwendam !!





My webcam Meer informatie My webcam


Onweer radar Meer informatie blitzortung!


Regen radar  rain snow radar


Bezoek onze andere website:

Template documentation
and downloads

And another site



METAR rapporten vliegvelden

   
EHAM - Amsterdam/Schiph, Netherlands
Afstand tot: ONO 18 km
Gewijzigd: 20-10-2018 18:25
Gedeeltelijk bewolkt  
Gedeeltelijk bewolkt  
   Wind: Westen 2.6 m/s
Wind: Westen 2.6 m/s
Temperatuur: 14°C
Dauwpunt: 11°C
Vochtigheid: 82%
Barometer: 1030 hPa
Bewolking: Partly Cloudy
Zicht: meer dan 10 km
Bewolking: Gedeeltelijk bewolkt 2500 ft
EHAM 201625Z 26005KT 230V290 9999 SCT025 14/11 Q1030 NOSIG
EHRD - Rotterdam Airpor, Netherlands
Afstand tot: ZZW 32 km
Gewijzigd: 20-10-2018 18:25
Helder  
Helder  
   Wind: Westen 1.5 m/s
Wind: Westen 1.5 m/s
Temperatuur: 13°C
Dauwpunt: 9°C
Vochtigheid: 77%
Barometer: 1030 hPa
Bewolking: Clear
Zicht: meer dan 10 km
Bewolking: Helder ft
EHRD 201625Z AUTO 27003KT 9999 NCD 13/09 Q1030 NOSIG
EHSC - Goeree Le Sea, Netherlands
Afstand tot: WZW 70 km
Gewijzigd: 20-10-2018 18:25
  
  
   Wind: WZW 4.1 m/s
Wind: WZW 4.1 m/s
Temperatuur: 14°C
Dauwpunt: 10°C
Vochtigheid: 77%
Barometer: 1030 hPa
Zicht: meer dan 10 km
EHSC 201625Z AUTO 24008KT 9999 ///////// 14/10 Q1030 W16/H4
EHKD - De Kooy (navy), Netherlands
Afstand tot: N 77 km
Gewijzigd: 20-10-2018 18:52
Grotendeels bewolkt  
Grotendeels bewolkt  
   Wind: WZW 2.6 m/s
Wind: WZW 2.6 m/s
Temperatuur: 13°C
Dauwpunt: 10°C
Vochtigheid: 82%
Barometer: 1030 hPa
Bewolking: Mostly Cloudy
Zicht: meer dan 10 km
Bewolking: Grotendeels bewolkt 2000 ft
EHKD 201652Z AUTO 24005KT 210V270 9999 BKN020 13/10 Q1030 WHT
EHGR - Gilze-Rijen Rnla, Netherlands
Afstand tot: ZZO 78 km
Gewijzigd: 20-10-2018 18:55
Helder  
Helder  
   Wind: Westen 0.5 m/s
Wind: Westen 0.5 m/s
Temperatuur: 11°C
Dauwpunt: 7°C
Vochtigheid: 77%
Barometer: 1031 hPa
Bewolking: Clear
Zicht: meer dan 10 km
Bewolking: Helder ft
EHGR 201655Z AUTO 27001KT 9999 NCD 11/07 Q1031 BLU
EHQE - Hoorn-A Sea, Netherlands
Afstand tot: NNW 81 km
Gewijzigd: 20-10-2018 18:25
Gedeeltelijk bewolkt  
Gedeeltelijk bewolkt  
   Wind: ZZW 6.2 m/s
Wind: ZZW 6.2 m/s
Temperatuur: 15°C
Dauwpunt: 10°C
Vochtigheid: 72%
Barometer: 1029 hPa
Bewolking: Partly Cloudy
Zicht: meer dan 10 km
Bewolking: Gedeeltelijk bewolkt ft
EHQE 201625Z AUTO 21012KT 9999 NSC 15/10 Q1029 W///H///
EHPG - P11-B Sea, Netherlands
Afstand tot: W 84 km
Gewijzigd: 20-10-2018 18:25
Helder  
Helder  
   Wind: ZW 4.1 m/s
Wind: ZW 4.1 m/s
Temperatuur: 15°C
Dauwpunt: 10°C
Vochtigheid: 72%
Barometer: 1030 hPa
Bewolking: Clear
Zicht: meer dan 10 km
Bewolking: Helder ft
EHPG 201625Z AUTO 23008KT 220V280 9999 NCD 15/10 Q1030 W///H///
EHWO - Woensdrecht Rnla, Netherlands
Afstand tot: Z 89 km
Gewijzigd: 20-10-2018 18:25
Helder  
Helder  
   Wind: varieert 0.5 m/s
Wind: varieert 0.5 m/s
Temperatuur: 12°C
Dauwpunt: 9°C
Vochtigheid: 82%
Barometer: 1030 hPa
Bewolking: Clear
Zicht: meer dan 10 km
Bewolking: Helder ft
EHWO 201625Z AUTO VRB01KT 9999 NCD 12/09 Q1030 BLU
 

Script ontwikkeld door  Saratoga-weather.org Aangepast voor de template door  Weerstation Leuven

U vindt ons ook hier:

UK Metoffice

European Weather Network

WeatherCloud

Weather Underground

Benelux Weer Netwerk

AWEKAS

Citizen Weather Observer Program (CWOP)

Apparatuur in gebruik:

Weerstation
Davis VP2

Weerprogramma
Weather Display

Weercomputer
My Computer

Davis VP2

Weather Display

My Computer